Time;durP1;ratioP1;P1;durP2;ratioP2;P2;SDS_P1;SDS_P2;PMS_P1;PMS_P2;Temp;Humidity;BMP_temperature;BMP_pressure;BME280_temperature;BME280_humidity;BME280_pressure;Samples;Min_cycle;Max_cycle;Signal;HPM_P1;HPM_P2
2022/09/17 00:00:58;;;;;;;10.90;1.95;;;9.20;99.90;;;;;;4934454;29;20040;-76
2022/09/17 00:03:25;;;;;;;10.05;2.03;;;9.20;99.90;;;;;;4919976;29;20044;-76
2022/09/17 00:05:59;;;;;;;15.63;2.22;;;9.10;99.90;;;;;;4931059;29;20530;-76
2022/09/17 00:08:25;;;;;;;11.80;2.22;;;9.20;99.90;;;;;;4900722;29;20036;-76
2022/09/17 00:10:50;;;;;;;12.98;2.30;;;9.10;99.90;;;;;;4918411;29;20032;-76
2022/09/17 00:13:16;;;;;;;13.70;2.75;;;9.10;99.90;;;;;;4919678;29;20048;-76
2022/09/17 00:15:43;;;;;;;12.48;2.80;;;9.10;99.90;;;;;;4935795;29;20407;-75
2022/09/17 00:18:10;;;;;;;10.13;2.45;;;9.20;99.90;;;;;;4926351;29;20071;-75
2022/09/17 00:20:38;;;;;;;12.85;2.33;;;9.20;99.90;;;;;;4898060;29;20048;-75
2022/09/17 00:23:04;;;;;;;9.27;2.15;;;9.30;99.90;;;;;;4915877;29;20070;-75
2022/09/17 00:25:30;;;;;;;15.57;2.97;;;9.30;99.90;;;;;;4926516;29;20518;-75
2022/09/17 00:27:56;;;;;;;9.48;2.65;;;9.40;99.90;;;;;;4919237;29;20047;-75
2022/09/17 00:30:21;;;;;;;11.70;2.95;;;9.40;99.90;;;;;;4919279;29;20482;-75
2022/09/17 00:32:47;;;;;;;9.35;4.03;;;9.40;99.90;;;;;;4911559;29;20033;-75
2022/09/17 00:35:12;;;;;;;11.35;3.35;;;9.40;99.90;;;;;;4929986;29;20056;-75
2022/09/17 00:37:38;;;;;;;11.70;3.22;;;9.50;99.90;;;;;;4900298;29;20047;-76
2022/09/17 00:40:04;;;;;;;8.55;2.33;;;9.50;99.90;;;;;;4916088;29;20063;-76
2022/09/17 00:42:29;;;;;;;11.98;2.30;;;9.50;99.90;;;;;;4906482;29;20051;-76
2022/09/17 00:44:56;;;;;;;10.73;2.30;;;9.60;99.90;;;;;;4918701;29;20040;-76
2022/09/17 00:47:38;;;;;;;19.17;2.83;;;9.50;99.90;;;;;;4909240;29;20128;-76
2022/09/17 00:50:16;;;;;;;11.68;2.00;;;9.50;99.90;;;;;;4893195;29;20078;-76
2022/09/17 00:52:51;;;;;;;9.77;1.80;;;9.40;99.90;;;;;;4908609;29;20039;-76
2022/09/17 00:55:22;;;;;;;9.77;1.90;;;9.40;99.90;;;;;;4934821;29;20047;-76
2022/09/17 00:57:51;;;;;;;9.65;1.98;;;9.40;99.90;;;;;;4914738;29;20067;-76
2022/09/17 01:00:17;;;;;;;9.90;1.35;;;9.30;99.90;;;;;;4899093;29;20079;-76
2022/09/17 01:02:43;;;;;;;13.82;2.47;;;9.30;99.90;;;;;;4926668;29;20564;-76
2022/09/17 01:05:10;;;;;;;10.73;1.77;;;9.20;99.90;;;;;;4918696;29;20035;-76
2022/09/17 01:08:00;;;;;;;10.82;1.95;;;9.20;99.90;;;;;;4893870;29;20547;-76
2022/09/17 01:10:48;;;;;;;7.38;2.10;;;9.10;99.90;;;;;;4898683;29;20130;-76
2022/09/17 01:13:33;;;;;;;11.18;2.20;;;9.10;99.90;;;;;;4905425;29;20051;-76
2022/09/17 01:16:04;;;;;;;8.10;1.88;;;9.00;99.90;;;;;;4911001;29;20043;-76
2022/09/17 01:18:56;;;;;;;10.73;2.20;;;9.00;99.90;;;;;;4934440;29;20470;-76
2022/09/17 01:21:51;;;;;;;7.95;2.00;;;9.00;99.90;;;;;;4912326;29;20504;-76
2022/09/17 01:24:43;;;;;;;10.35;2.17;;;9.00;99.90;;;;;;4918902;29;20044;-76
2022/09/17 01:27:29;;;;;;;7.22;1.80;;;9.00;99.90;;;;;;4928911;29;20099;-76
2022/09/17 01:30:27;;;;;;;10.20;1.85;;;9.00;99.90;;;;;;4918542;29;20526;-76
2022/09/17 01:33:20;;;;;;;6.10;2.13;;;9.00;99.90;;;;;;4916536;29;20099;-76
2022/09/17 01:36:08;;;;;;;8.20;1.52;;;9.00;99.90;;;;;;4899377;29;20056;-76
2022/09/17 01:38:44;;;;;;;9.50;2.42;;;8.90;99.90;;;;;;4916239;29;20092;-76
2022/09/17 01:41:18;;;;;;;10.02;1.95;;;8.90;99.90;;;;;;4899111;29;20051;-76
2022/09/17 01:43:46;;;;;;;10.55;2.17;;;8.90;99.90;;;;;;4915644;29;20040;-76
2022/09/17 01:46:18;;;;;;;13.75;2.55;;;8.90;99.90;;;;;;4917945;29;20044;-76
2022/09/17 01:48:48;;;;;;;11.23;1.90;;;9.00;99.90;;;;;;4917851;29;20031;-76
2022/09/17 01:51:18;;;;;;;15.52;2.38;;;9.00;99.90;;;;;;4901043;29;20131;-76
2022/09/17 01:53:52;;;;;;;13.88;2.05;;;9.00;99.90;;;;;;4888610;29;20044;-76
2022/09/17 01:56:25;;;;;;;9.82;2.08;;;9.10;99.90;;;;;;4895719;29;20051;-76
2022/09/17 01:58:55;;;;;;;;;;;9.10;99.90;;;;;;4905921;29;20054;-76
2022/09/17 02:01:23;;;;;;;9.32;2.22;;;9.10;99.90;;;;;;4905748;29;19926;-76
2022/09/17 02:03:58;;;;;;;10.27;1.88;;;9.10;99.90;;;;;;4914875;29;20044;-76
2022/09/17 02:06:28;;;;;;;9.05;1.80;;;9.10;99.90;;;;;;4929121;29;20131;-76
2022/09/17 02:08:59;;;;;;;10.10;2.05;;;9.10;99.90;;;;;;4914403;29;20040;-76
2022/09/17 02:11:25;;;;;;;9.70;2.00;;;9.10;99.90;;;;;;4899046;29;20510;-76
2022/09/17 02:13:59;;;;;;;8.13;1.60;;;9.10;99.90;;;;;;4898769;29;20040;-76
2022/09/17 02:16:31;;;;;;;10.20;2.05;;;9.10;99.90;;;;;;4901679;29;20032;-76
2022/09/17 02:19:12;;;;;;;6.75;1.70;;;9.00;99.90;;;;;;4899740;29;20040;-76
2022/09/17 02:21:45;;;;;;;8.48;1.92;;;9.00;99.90;;;;;;4896026;29;20040;-76
2022/09/17 02:24:40;;;;;;;;;;;9.00;99.90;;;;;;4895605;29;20044;-76
2022/09/17 02:27:18;;;;;;;7.78;1.30;;;9.00;99.90;;;;;;4899617;29;19958;-76
2022/09/17 02:29:44;;;;;;;12.40;2.53;;;9.00;99.90;;;;;;4900509;29;20067;-76
2022/09/17 02:32:11;;;;;;;12.93;3.50;;;9.00;99.90;;;;;;4898512;29;20040;-76
2022/09/17 02:34:37;;;;;;;11.82;2.97;;;9.00;99.90;;;;;;4898518;29;20407;-76
2022/09/17 02:37:04;;;;;;;11.70;2.05;;;8.90;99.90;;;;;;4906235;29;20399;-76
2022/09/17 02:39:30;;;;;;;9.93;2.17;;;8.90;99.90;;;;;;4922564;29;20058;-76
2022/09/17 02:42:27;;;;;;;6.47;1.95;;;8.90;99.90;;;;;;4882712;29;20115;-77
2022/09/17 02:45:06;;;;;;;9.80;1.95;;;8.90;99.90;;;;;;4898493;29;20069;-76
2022/09/17 02:47:40;;;;;;;8.90;2.80;;;8.90;99.90;;;;;;4912894;29;20036;-76
2022/09/17 02:50:13;;;;;;;8.93;2.35;;;8.90;99.90;;;;;;4894450;29;20139;-76
2022/09/17 02:52:48;;;;;;;8.90;2.10;;;8.90;99.90;;;;;;4912368;29;20043;-75
2022/09/17 02:55:24;;;;;;;8.05;1.60;;;8.90;99.90;;;;;;4932595;29;20468;-75
2022/09/17 02:57:59;;;;;;;4.85;1.50;;;8.90;99.90;;;;;;4908477;29;20044;-75
2022/09/17 03:00:27;;;;;;;5.78;1.30;;;8.90;99.90;;;;;;4916202;29;20050;-75
2022/09/17 03:03:11;;;;;;;6.82;1.42;;;8.90;99.90;;;;;;4916533;29;20055;-75
2022/09/17 03:05:38;;;;;;;7.70;1.45;;;8.90;99.90;;;;;;4921428;29;20051;-75
2022/09/17 03:08:11;;;;;;;5.25;1.65;;;8.80;99.90;;;;;;4907404;29;20570;-75
2022/09/17 03:10:36;;;;;;;5.00;0.98;;;8.80;99.90;;;;;;4919559;29;20039;-75
2022/09/17 03:13:02;;;;;;;6.95;1.52;;;8.80;99.90;;;;;;4919825;29;20551;-75
2022/09/17 03:15:28;;;;;;;7.65;1.45;;;8.80;99.90;;;;;;4925880;29;20487;-75
2022/09/17 03:17:54;;;;;;;6.63;1.40;;;8.80;99.90;;;;;;4925829;29;20043;-75
2022/09/17 03:20:20;;;;;;;7.45;1.45;;;8.80;99.90;;;;;;4903834;29;20490;-75
2022/09/17 03:22:46;;;;;;;7.95;1.60;;;8.70;99.90;;;;;;4935246;29;20043;-75
2022/09/17 03:25:11;;;;;;;8.15;2.22;;;8.70;99.90;;;;;;4919501;29;20546;-75
2022/09/17 03:27:37;;;;;;;5.75;1.73;;;8.70;99.90;;;;;;4927601;29;20083;-75
2022/09/17 03:30:03;;;;;;;7.47;1.60;;;8.70;99.90;;;;;;4928541;29;20118;-75
2022/09/17 03:32:29;;;;;;;6.72;2.05;;;8.70;99.90;;;;;;4903884;29;20530;-75
2022/09/17 03:34:54;;;;;;;10.27;3.40;;;8.80;99.90;;;;;;4885127;29;20048;-75
2022/09/17 03:37:20;;;;;;;7.80;3.30;;;8.80;99.90;;;;;;4886969;29;20563;-75
2022/09/17 03:39:46;;;;;;;8.40;2.58;;;8.80;99.90;;;;;;4910822;29;20052;-75
2022/09/17 03:42:12;;;;;;;10.07;2.33;;;8.90;99.90;;;;;;4900082;29;20389;-75
2022/09/17 03:44:37;;;;;;;13.07;2.53;;;8.90;99.90;;;;;;4915371;29;20122;-75
2022/09/17 03:47:03;;;;;;;6.07;1.48;;;8.90;99.90;;;;;;4911980;29;20043;-75
2022/09/17 03:49:28;;;;;;;8.25;1.65;;;8.80;99.90;;;;;;4935001;29;20075;-75
2022/09/17 03:51:54;;;;;;;8.20;1.70;;;8.90;99.90;;;;;;4897421;29;1115407;-75
2022/09/17 03:54:20;;;;;;;9.13;1.80;;;8.90;99.90;;;;;;4902172;29;20542;-75
2022/09/17 03:56:45;;;;;;;9.82;1.80;;;8.80;99.90;;;;;;4899564;29;20143;-75
2022/09/17 03:59:11;;;;;;;8.10;1.70;;;8.80;99.90;;;;;;4900519;29;20040;-75
2022/09/17 04:01:36;;;;;;;8.00;1.60;;;8.80;99.90;;;;;;4914815;29;20039;-75
2022/09/17 04:04:03;;;;;;;9.60;1.50;;;8.80;99.90;;;;;;4922266;29;20034;-75
2022/09/17 04:06:29;;;;;;;9.57;1.90;;;8.80;99.90;;;;;;4900748;29;20067;-75
2022/09/17 04:08:55;;;;;;;7.25;1.92;;;8.80;99.90;;;;;;4895635;29;20503;-75
2022/09/17 04:11:21;;;;;;;4.97;1.35;;;8.70;99.90;;;;;;4919690;29;20044;-75
2022/09/17 04:13:47;;;;;;;11.43;1.80;;;8.70;99.90;;;;;;4909452;29;20044;-75
2022/09/17 04:16:13;;;;;;;8.20;1.98;;;8.60;99.90;;;;;;4935616;29;20521;-75
2022/09/17 04:18:38;;;;;;;7.82;1.80;;;8.60;99.90;;;;;;4918333;29;20039;-75
2022/09/17 04:21:04;;;;;;;5.20;1.42;;;8.60;99.90;;;;;;4935411;29;20054;-75
2022/09/17 04:23:30;;;;;;;7.20;1.65;;;8.50;99.90;;;;;;4919810;29;20044;-75
2022/09/17 04:25:56;;;;;;;10.23;2.38;;;8.50;99.90;;;;;;4919451;29;20130;-75
2022/09/17 04:28:21;;;;;;;8.57;2.03;;;8.50;99.90;;;;;;4928007;29;20047;-75
2022/09/17 04:30:48;;;;;;;7.45;2.10;;;8.50;99.90;;;;;;4927395;29;20085;-75
2022/09/17 04:33:13;;;;;;;9.77;2.58;;;8.50;99.90;;;;;;4935275;29;20036;-75
2022/09/17 04:35:39;;;;;;;7.18;2.47;;;8.50;99.90;;;;;;4935279;29;20483;-75
2022/09/17 04:38:05;;;;;;;11.77;3.17;;;8.50;99.90;;;;;;4934952;29;20048;-75
2022/09/17 04:40:30;;;;;;;8.45;2.00;;;8.50;99.90;;;;;;4923360;29;20415;-75
2022/09/17 04:42:58;;;;;;;9.68;2.33;;;8.50;99.90;;;;;;4917202;29;20482;-75
2022/09/17 04:45:24;;;;;;;9.02;1.88;;;8.40;99.90;;;;;;4920107;29;20578;-75
2022/09/17 04:47:50;;;;;;;8.30;1.88;;;8.40;99.90;;;;;;4900355;29;20044;-75
2022/09/17 04:50:17;;;;;;;11.50;2.10;;;8.40;99.90;;;;;;4900344;29;20088;-75
2022/09/17 04:52:44;;;;;;;12.63;2.60;;;8.40;99.90;;;;;;4900513;29;20427;-77
2022/09/17 04:55:10;;;;;;;7.22;2.13;;;8.40;99.90;;;;;;4881103;29;20050;-75
2022/09/17 04:57:35;;;;;;;9.68;2.28;;;8.40;99.90;;;;;;4904356;29;20130;-75
2022/09/17 05:00:02;;;;;;;10.48;2.00;;;8.50;99.90;;;;;;4918940;29;20054;-75
2022/09/17 05:02:28;;;;;;;11.02;1.80;;;8.60;99.90;;;;;;4934909;29;20463;-75
2022/09/17 05:04:55;;;;;;;9.68;1.92;;;8.60;99.90;;;;;;4917824;29;20036;-75
2022/09/17 05:07:21;;;;;;;6.43;2.03;;;8.70;99.90;;;;;;4898352;29;20043;-75
2022/09/17 05:09:47;;;;;;;9.55;1.75;;;8.70;99.90;;;;;;4907124;29;20400;-75
2022/09/17 05:12:12;;;;;;;6.60;1.50;;;8.70;99.90;;;;;;4900157;29;20040;-75
2022/09/17 05:14:38;;;;;;;4.85;1.48;;;8.70;99.90;;;;;;4899986;29;20048;-75
2022/09/17 05:17:04;;;;;;;6.10;1.23;;;8.70;99.90;;;;;;4898892;29;20040;-75
2022/09/17 05:19:29;;;;;;;5.90;1.50;;;8.70;99.90;;;;;;4900284;29;20464;-75
2022/09/17 05:21:55;;;;;;;8.65;1.50;;;8.70;99.90;;;;;;4906945;29;20075;-75
2022/09/17 05:24:20;;;;;;;7.55;1.58;;;8.60;99.90;;;;;;4920839;29;20415;-75
2022/09/17 05:26:46;;;;;;;6.70;1.52;;;8.60;99.90;;;;;;4924547;29;20439;-75
2022/09/17 05:29:12;;;;;;;7.82;1.90;;;8.50;99.90;;;;;;4906298;29;20062;-75
2022/09/17 05:31:37;;;;;;;8.40;1.80;;;8.50;99.90;;;;;;4908807;29;20043;-75
2022/09/17 05:34:03;;;;;;;10.90;2.03;;;8.40;99.90;;;;;;4917882;29;20067;-75
2022/09/17 05:36:28;;;;;;;7.38;1.40;;;8.30;99.90;;;;;;4927197;29;20488;-75
2022/09/17 05:38:54;;;;;;;9.18;1.55;;;8.30;99.90;;;;;;4885003;29;20131;-75
2022/09/17 05:41:19;;;;;;;7.97;1.63;;;8.30;99.90;;;;;;4918301;29;20051;-75
2022/09/17 05:43:45;;;;;;;14.73;2.30;;;8.30;99.90;;;;;;4918132;29;20135;-75
2022/09/17 05:46:11;;;;;;;7.13;1.30;;;8.20;99.90;;;;;;4928000;29;20044;-75
2022/09/17 05:48:36;;;;;;;6.28;1.80;;;8.20;99.90;;;;;;4893792;29;20041;-75
2022/09/17 05:51:02;;;;;;;7.88;1.52;;;8.20;99.90;;;;;;4933803;29;20028;-75
2022/09/17 05:53:28;;;;;;;10.00;1.85;;;8.20;99.90;;;;;;4918814;29;20040;-75
2022/09/17 05:55:58;;;;;;;7.85;1.80;;;8.20;99.90;;;;;;4908509;29;20074;-75
2022/09/17 05:58:24;;;;;;;7.03;1.50;;;8.20;99.90;;;;;;4911996;29;20055;-75
2022/09/17 06:00:49;;;;;;;7.75;2.15;;;8.20;99.90;;;;;;4893601;29;20032;-75
2022/09/17 06:03:17;;;;;;;10.05;1.65;;;8.20;99.90;;;;;;4904429;29;20549;-75
2022/09/17 06:05:51;;;;;;;7.78;1.67;;;8.20;99.90;;;;;;4898961;29;20044;-75
2022/09/17 06:08:16;;;;;;;8.90;1.60;;;8.30;99.90;;;;;;4898063;29;20126;-74
2022/09/17 06:10:42;;;;;;;9.35;2.38;;;8.30;99.90;;;;;;4921354;29;20122;-75
2022/09/17 06:13:07;;;;;;;14.07;2.40;;;8.40;99.90;;;;;;4902249;29;20044;-75
2022/09/17 06:15:33;;;;;;;9.07;2.20;;;8.50;99.90;;;;;;4880309;29;20040;-75
2022/09/17 06:17:58;;;;;;;8.65;2.50;;;8.50;99.90;;;;;;4906295;29;20087;-75
2022/09/17 06:20:24;;;;;;;9.38;1.80;;;8.50;99.90;;;;;;4917384;29;20379;-75
2022/09/17 06:22:56;;;;;;;6.50;1.67;;;8.60;99.90;;;;;;4929298;29;20515;-75
2022/09/17 06:25:22;;;;;;;6.47;2.00;;;8.60;99.90;;;;;;4898454;29;20048;-75
2022/09/17 06:27:48;;;;;;;7.00;2.05;;;8.60;99.90;;;;;;4906941;29;20491;-75
2022/09/17 06:30:13;;;;;;;8.55;1.58;;;8.70;99.90;;;;;;4900520;29;20044;-75
2022/09/17 06:32:39;;;;;;;7.57;1.70;;;8.70;99.90;;;;;;4894449;29;20047;-75
2022/09/17 06:35:05;;;;;;;9.23;1.92;;;8.80;99.90;;;;;;4914357;29;20051;-76
2022/09/17 06:37:31;;;;;;;8.65;2.08;;;8.80;99.90;;;;;;4914559;29;20436;-75
2022/09/17 06:40:00;;;;;;;5.93;1.40;;;8.90;99.90;;;;;;4898651;29;20130;-76
2022/09/17 06:42:27;;;;;;;5.90;1.25;;;9.00;99.90;;;;;;4890953;29;20048;-80
2022/09/17 06:44:53;;;;;;;5.03;1.08;;;9.00;99.90;;;;;;4897142;29;20058;-76
2022/09/17 06:47:18;;;;;;;8.10;1.67;;;9.00;99.90;;;;;;4910172;29;20127;-76
2022/09/17 06:49:44;;;;;;;7.63;1.20;;;9.00;99.90;;;;;;4911488;29;20032;-76
2022/09/17 06:52:09;;;;;;;6.72;1.63;;;9.00;99.90;;;;;;4912761;29;20483;-76
2022/09/17 06:54:35;;;;;;;4.93;1.30;;;9.00;99.90;;;;;;4880640;29;20576;-75
2022/09/17 06:57:01;;;;;;;8.05;1.38;;;8.90;99.90;;;;;;4906318;29;20040;-76
2022/09/17 06:59:27;;;;;;;7.97;1.63;;;8.90;99.90;;;;;;4907920;29;20036;-75
2022/09/17 07:01:52;;;;;;;5.72;1.27;;;9.00;99.90;;;;;;4923240;29;20095;-76
2022/09/17 07:04:18;;;;;;;4.95;1.20;;;9.10;99.90;;;;;;4910819;29;20373;-75
2022/09/17 07:06:44;;;;;;;7.55;1.70;;;9.30;99.90;;;;;;4898201;29;20348;-75
2022/09/17 07:09:10;;;;;;;7.70;1.42;;;9.50;99.90;;;;;;4901242;29;20052;-76
2022/09/17 07:11:37;;;;;;;6.55;1.38;;;9.70;99.90;;;;;;4930206;29;20411;-77
2022/09/17 07:14:03;;;;;;;6.25;1.30;;;9.70;99.90;;;;;;4933171;29;20043;-77
2022/09/17 07:16:31;;;;;;;5.80;1.30;;;9.80;99.90;;;;;;4880264;29;20044;-76
2022/09/17 07:18:56;;;;;;;5.05;1.27;;;9.80;99.90;;;;;;4921884;29;20082;-76
2022/09/17 07:21:22;;;;;;;5.25;1.27;;;9.80;99.90;;;;;;4896148;29;20076;-76
2022/09/17 07:23:50;;;;;;;4.93;1.00;;;9.80;99.90;;;;;;4870729;29;20051;-76
2022/09/17 07:26:16;;;;;;;6.05;1.45;;;9.80;99.90;;;;;;4932562;29;20048;-76
2022/09/17 07:28:42;;;;;;;4.38;1.05;;;9.80;99.90;;;;;;4932673;29;20042;-76
2022/09/17 07:31:09;;;;;;;3.47;1.40;;;9.80;99.90;;;;;;4918898;29;20044;-75
2022/09/17 07:33:36;;;;;;;3.72;1.30;;;9.90;99.90;;;;;;4905508;29;20036;-76
2022/09/17 07:36:05;;;;;;;5.38;1.15;;;9.90;99.90;;;;;;4898346;29;20399;-76
2022/09/17 07:38:30;;;;;;;3.70;1.00;;;10.00;99.90;;;;;;4894349;29;20040;-76
2022/09/17 07:41:01;;;;;;;5.38;1.20;;;10.10;99.90;;;;;;4897697;29;20534;-76
2022/09/17 07:43:29;;;;;;;5.05;1.20;;;10.30;99.90;;;;;;4897991;29;20063;-76
2022/09/17 07:45:57;;;;;;;5.60;1.20;;;10.40;99.90;;;;;;4891626;29;20403;-76
2022/09/17 07:48:23;;;;;;;5.70;1.08;;;10.50;99.90;;;;;;4897572;29;20037;-76
2022/09/17 07:50:49;;;;;;;4.55;0.90;;;10.60;99.90;;;;;;4894396;29;20064;-76
2022/09/17 07:53:15;;;;;;;4.70;1.08;;;10.70;99.90;;;;;;4919387;29;20123;-76
2022/09/17 07:55:41;;;;;;;3.60;0.90;;;10.70;99.90;;;;;;4898085;29;20032;-79
2022/09/17 07:58:07;;;;;;;2.63;0.77;;;10.70;99.90;;;;;;4921364;29;20050;-77
2022/09/17 08:00:33;;;;;;;3.30;0.85;;;10.70;99.90;;;;;;4921800;29;20035;-76
2022/09/17 08:02:59;;;;;;;3.60;0.95;;;10.80;99.90;;;;;;4919789;29;20028;-76
2022/09/17 08:05:26;;;;;;;3.45;0.80;;;10.90;99.90;;;;;;4920937;29;20052;-75
2022/09/17 08:07:53;;;;;;;2.58;0.80;;;10.90;99.90;;;;;;4928093;29;20067;-75
2022/09/17 08:10:21;;;;;;;5.25;0.80;;;11.00;99.90;;;;;;4919290;29;20043;-75
2022/09/17 08:12:48;;;;;;;4.72;1.00;;;11.00;99.90;;;;;;4897187;29;20126;-75
2022/09/17 08:15:18;;;;;;;5.20;1.20;;;11.10;99.90;;;;;;4898252;29;20039;-74
2022/09/17 08:17:45;;;;;;;2.42;0.60;;;11.20;99.90;;;;;;4919528;29;20546;-74
2022/09/17 08:20:12;;;;;;;3.20;0.60;;;11.40;99.90;;;;;;4924412;29;20040;-74
2022/09/17 08:22:38;;;;;;;2.83;0.60;;;11.40;99.90;;;;;;4900542;29;20048;-74
2022/09/17 08:25:05;;;;;;;2.15;0.60;;;11.50;99.90;;;;;;4900728;29;20420;-75
2022/09/17 08:27:30;;;;;;;2.55;0.88;;;11.50;99.90;;;;;;4915073;29;20050;-74
2022/09/17 08:29:56;;;;;;;2.63;0.85;;;11.50;99.90;;;;;;4915634;29;20119;-74
2022/09/17 08:32:22;;;;;;;2.90;0.60;;;11.60;99.90;;;;;;4896137;29;20394;-75
2022/09/17 08:34:48;;;;;;;4.53;0.80;;;11.60;99.90;;;;;;4912670;29;20126;-74
2022/09/17 08:37:14;;;;;;;4.90;0.88;;;11.80;99.90;;;;;;4915167;29;20127;-74
2022/09/17 08:39:39;;;;;;;2.50;0.85;;;12.00;99.90;;;;;;4900453;29;20044;-74
2022/09/17 08:42:11;;;;;;;6.55;0.80;;;12.20;99.90;;;;;;4900313;29;20052;-75
2022/09/17 08:44:46;;;;;;;3.45;0.80;;;12.30;99.90;;;;;;4899464;29;20407;-75
2022/09/17 08:47:27;;;;;;;3.00;0.70;;;12.30;99.90;;;;;;4900348;29;20111;-75
2022/09/17 08:49:56;;;;;;;5.78;1.00;;;12.20;99.90;;;;;;4900374;29;20135;-74
2022/09/17 08:52:51;;;;;;;6.38;0.70;;;12.40;99.90;;;;;;4936745;23;20051;-77
2022/09/17 08:55:38;;;;;;;5.35;0.70;;;13.10;99.90;;;;;;4903778;29;20450;-77
2022/09/17 08:58:16;;;;;;;3.08;0.73;;;13.50;99.90;;;;;;4904357;29;20031;-77
2022/09/17 09:00:54;;;;;;;3.42;0.70;;;13.50;99.90;;;;;;4895469;29;20071;-77
2022/09/17 09:03:33;;;;;;;5.30;0.85;;;13.60;99.90;;;;;;4900391;29;20047;-77
2022/09/17 09:06:00;;;;;;;3.03;0.80;;;13.80;99.90;;;;;;4899549;29;20051;-77
2022/09/17 09:08:38;;;;;;;6.45;1.00;;;14.00;99.90;;;;;;4880331;29;20044;-77
2022/09/17 09:11:21;;;;;;;6.40;0.80;;;14.20;99.90;;;;;;4866335;29;20040;-78
2022/09/17 09:13:52;;;;;;;;;;;14.40;99.90;;;;;;4869152;29;20044;-79
2022/09/17 09:16:21;;;;;;;2.33;0.55;;;14.20;99.90;;;;;;4884978;29;19966;-77
2022/09/17 09:19:04;;;;;;;2.15;0.60;;;14.10;99.90;;;;;;4891647;29;20479;-78
2022/09/17 09:21:42;;;;;;;6.25;0.82;;;13.90;99.90;;;;;;4884785;29;20040;-78
2022/09/17 09:24:24;;;;;;;5.97;0.65;;;13.70;99.90;;;;;;4884523;29;20048;-77
2022/09/17 09:26:59;;;;;;;4.00;0.80;;;13.60;99.90;;;;;;4884474;29;20036;-78
2022/09/17 09:29:41;;;;;;;8.38;1.13;;;13.60;99.90;;;;;;4887315;29;20044;-77
2022/09/17 09:32:42;;;;;;;7.35;1.20;;;13.60;99.90;;;;;;4886601;29;20044;-76
2022/09/17 09:35:19;;;;;;;4.90;1.20;;;13.40;99.90;;;;;;4899488;29;20050;-78
2022/09/17 09:38:16;;;;;;;4.70;0.90;;;13.10;99.90;;;;;;4883675;29;20055;-77
2022/09/17 09:40:58;;;;;;;4.97;1.20;;;12.80;99.90;;;;;;4869444;29;20066;-77
2022/09/17 09:43:54;;;;;;;6.90;1.17;;;12.50;99.90;;;;;;4877107;29;20633;-78
2022/09/17 09:46:46;;;;;;;8.18;1.05;;;12.60;99.90;;;;;;4901288;29;20039;-77
2022/09/17 09:49:13;;;;;;;6.95;0.80;;;12.80;99.90;;;;;;4910898;29;20098;-78
2022/09/17 09:52:00;;;;;;;6.78;1.23;;;13.20;99.90;;;;;;4897045;29;20168;-79
2022/09/17 09:55:04;;;;;;;4.97;1.23;;;13.70;99.90;;;;;;4901326;29;20038;-79
2022/09/17 09:57:53;;;;;;;8.75;1.17;;;14.30;99.90;;;;;;4895597;29;20434;-78
2022/09/17 10:00:35;;;;;;;7.32;1.52;;;14.70;99.90;;;;;;4901350;29;20047;-79
2022/09/17 10:03:31;;;;;;;7.18;0.88;;;15.10;99.90;;;;;;4896265;29;20098;-77
2022/09/17 10:06:14;;;;;;;7.22;1.10;;;15.50;99.90;;;;;;4898307;29;20050;-79
2022/09/17 10:09:19;;;;;;;;;;;;;;;;;;;;;
2022/09/17 10:12:45;;;;;;;9.15;1.33;;;16.00;99.90;;;;;;4911280;29;20056;-79
2022/09/17 10:15:35;;;;;;;5.53;0.90;;;16.40;99.90;;;;;;4840373;29;20049;-78
2022/09/17 10:18:16;;;;;;;6.32;1.42;;;16.80;99.90;;;;;;4895110;29;20400;-77
2022/09/17 10:21:03;;;;;;;8.48;1.20;;;16.60;99.90;;;;;;4910264;29;20502;-77
2022/09/17 10:23:46;;;;;;;8.23;1.25;;;16.30;99.90;;;;;;4924945;29;20036;-77
2022/09/17 10:26:31;;;;;;;3.92;0.85;;;15.90;99.90;;;;;;4914042;29;20043;-78
2022/09/17 10:29:08;;;;;;;6.82;1.20;;;15.50;99.90;;;;;;4913365;29;20150;-77
2022/09/17 10:31:48;;;;;;;5.65;0.98;;;15.00;99.90;;;;;;4905487;29;20079;-78
2022/09/17 10:34:26;;;;;;;6.53;1.63;;;14.60;99.90;;;;;;4901195;29;20083;-78
2022/09/17 10:37:00;;;;;;;5.43;1.00;;;14.30;99.90;;;;;;4886751;29;20419;-78
2022/09/17 10:39:43;;;;;;;8.02;1.45;;;14.20;99.90;;;;;;4891832;29;20078;-77
2022/09/17 10:42:20;;;;;;;8.18;0.80;;;13.80;99.90;;;;;;4910554;29;20059;-81
2022/09/17 10:45:09;;;;;;;4.90;0.73;;;13.30;99.90;;;;;;4905354;29;20394;-82
2022/09/17 10:48:00;;;;;;;5.00;0.50;;;13.00;99.90;;;;;;4887372;29;20051;-81
2022/09/17 10:50:36;;;;;;;4.53;0.65;;;12.50;99.90;;;;;;4901879;29;20075;-81
2022/09/17 10:53:07;;;;;;;;;;;12.20;99.90;;;;;;4898968;29;20066;-79
2022/09/17 10:55:59;;;;;;;6.60;0.80;;;12.10;99.90;;;;;;4902400;29;20273;-81
2022/09/17 10:59:08;;;;;;;5.32;1.10;;;12.30;99.90;;;;;;4873646;29;20041;-80
2022/09/17 11:02:25;;;;;;;7.00;0.77;;;12.70;99.90;;;;;;4897730;29;20040;-80
2022/09/17 11:05:23;;;;;;;7.90;1.15;;;13.30;99.90;;;;;;4897987;29;20054;-77
2022/09/17 11:08:16;;;;;;;6.93;1.30;;;13.90;99.90;;;;;;4895954;29;20479;-77
2022/09/17 11:11:05;;;;;;;7.75;1.05;;;14.50;99.90;;;;;;4903655;29;20032;-78
2022/09/17 11:14:18;;;;;;;7.38;0.90;;;14.60;99.90;;;;;;4882317;29;20044;-78
2022/09/17 11:17:12;;;;;;;3.70;0.70;;;14.40;99.90;;;;;;4898702;29;20400;-76
2022/09/17 11:20:02;;;;;;;5.25;0.80;;;14.10;99.90;;;;;;4911060;29;20095;-78
2022/09/17 11:22:52;;;;;;;3.53;0.52;;;14.30;99.90;;;;;;4899884;29;20055;-78
2022/09/17 11:25:41;;;;;;;3.45;0.57;;;14.60;99.90;;;;;;4889409;29;20050;-78
2022/09/17 11:28:32;;;;;;;4.10;0.70;;;15.00;99.90;;;;;;4885457;29;20048;-78
2022/09/17 11:31:17;;;;;;;3.33;0.60;;;15.40;99.90;;;;;;4871941;29;20046;-79
2022/09/17 11:34:08;;;;;;;4.65;0.63;;;15.60;99.90;;;;;;4880273;29;20048;-79
2022/09/17 11:36:50;;;;;;;3.33;0.70;;;15.80;99.90;;;;;;4886836;29;20043;-77
2022/09/17 11:39:24;;;;;;;3.53;0.57;;;15.90;99.90;;;;;;4899925;29;20511;-78
2022/09/17 11:41:56;;;;;;;2.63;0.45;;;16.00;99.90;;;;;;4904647;29;20036;-80
2022/09/17 11:44:59;;;;;;;2.75;0.55;;;16.10;99.90;;;;;;4900805;29;20044;-78
2022/09/17 11:48:15;;;;;;;3.40;0.70;;;16.10;99.90;;;;;;4915851;29;20044;-78
2022/09/17 11:51:11;;;;;;;3.30;0.63;;;16.00;99.90;;;;;;4904906;29;20214;-79
2022/09/17 11:53:47;;;;;;;5.25;1.10;;;16.00;99.90;;;;;;4905041;29;20047;-77
2022/09/17 11:56:34;;;;;;;2.63;0.60;;;15.90;99.90;;;;;;4903435;29;20051;-75
2022/09/17 11:59:49;;;;;;;3.50;0.63;;;15.90;99.90;;;;;;4874074;29;20127;-78
2022/09/17 12:03:21;;;;;;;5.32;1.00;;;16.20;99.90;;;;;;4898222;29;20306;-77
2022/09/17 12:06:09;;;;;;;6.32;1.05;;;16.50;99.90;;;;;;4894811;29;20084;-77
2022/09/17 12:08:41;;;;;;;9.45;1.85;;;16.70;99.90;;;;;;4894746;29;20127;-77
2022/09/17 12:11:50;;;;;;;5.75;1.45;;;16.60;99.90;;;;;;4887050;29;20494;-76
2022/09/17 12:14:36;;;;;;;4.50;0.80;;;16.30;99.90;;;;;;4889720;29;20052;-76
2022/09/17 12:17:24;;;;;;;3.80;0.80;;;15.90;99.90;;;;;;4884621;29;20122;-76
2022/09/17 12:20:21;;;;;;;5.50;1.10;;;15.20;99.90;;;;;;4894512;29;20040;-75
2022/09/17 12:23:15;;;;;;;5.50;1.10;;;14.70;99.90;;;;;;4909045;29;20058;-76
2022/09/17 12:26:11;;;;;;;6.00;1.10;;;14.70;99.90;;;;;;4874140;29;20490;-75
2022/09/17 12:29:07;;;;;;;5.50;1.13;;;15.10;99.90;;;;;;4900062;29;20040;-76
2022/09/17 12:32:03;;;;;;;5.47;1.23;;;15.40;99.90;;;;;;4885821;29;20040;-75
2022/09/17 12:35:12;;;;;;;;;;;;;;;;;;;;;
2022/09/17 12:38:22;;;;;;;8.02;1.17;;;16.20;99.90;;;;;;4908078;29;20435;-76
2022/09/17 12:41:18;;;;;;;6.28;1.15;;;16.30;99.90;;;;;;4897355;29;20122;-77
2022/09/17 12:44:04;;;;;;;7.47;1.65;;;16.50;99.90;;;;;;4888500;29;20044;-78
2022/09/17 12:47:11;;;;;;;8.15;1.35;;;16.60;99.90;;;;;;4895520;29;20426;-77
2022/09/17 12:49:56;;;;;;;8.45;2.05;;;16.70;99.90;;;;;;4900570;29;20153;-76
2022/09/17 12:52:56;;;;;;;9.05;1.83;;;16.80;99.90;;;;;;4886776;29;20529;-77
2022/09/17 12:55:49;;;;;;;8.73;1.65;;;16.80;99.90;;;;;;4901126;29;20141;-77
2022/09/17 12:58:21;;;;;;;9.77;2.22;;;16.80;99.90;;;;;;4886663;29;20056;-76
2022/09/17 13:01:14;;;;;;;13.13;2.25;;;16.90;99.90;;;;;;4893890;29;20059;-77
2022/09/17 13:04:00;;;;;;;7.50;1.70;;;16.80;99.90;;;;;;4902139;29;20110;-77
2022/09/17 13:07:07;;;;;;;11.05;1.63;;;16.80;99.90;;;;;;4900596;29;20175;-77
2022/09/17 13:09:51;;;;;;;12.32;2.08;;;17.00;99.90;;;;;;4875852;29;20051;-78
2022/09/17 13:12:16;;;;;;;;;;;17.00;99.90;;;;;;4886710;29;20039;-78
2022/09/17 13:14:54;;;;;;;10.38;1.90;;;16.90;99.90;;;;;;4890270;29;20350;-77
2022/09/17 13:17:31;;;;;;;11.63;2.35;;;16.80;99.90;;;;;;4911461;29;20126;-77
2022/09/17 13:20:30;;;;;;;13.25;1.92;;;16.80;99.90;;;;;;4900612;29;20052;-77
2022/09/17 13:23:11;;;;;;;12.68;1.90;;;16.60;99.90;;;;;;4880796;29;20497;-76
2022/09/17 13:25:52;;;;;;;9.93;2.08;;;16.70;99.90;;;;;;4883791;29;20057;-80
2022/09/17 13:28:45;;;;;;;11.43;2.45;;;16.80;99.90;;;;;;4913749;29;20043;-76
2022/09/17 13:31:17;;;;;;;13.13;1.83;;;17.00;99.90;;;;;;4895184;29;20047;-77
2022/09/17 13:33:58;;;;;;;11.45;2.03;;;16.80;99.90;;;;;;4904587;29;20035;-77
2022/09/17 13:36:43;;;;;;;8.93;1.50;;;16.50;92.70;;;;;;4889695;29;20406;-77